Wilmington, North Carolina
Current Conditions -  °F | °C
As of 11:53 PM on Friday 19 Dec 2014 (Local Time) from KILM Reporting Station
Clear Clear  
Wind Chill: 37°   Ceiling: Unl
Heat Index: 42°   Visibility: 10mi
Dew Point: 33°   Wind: 9mph
Humidity: 70%   Direction: 40°NE
Pressure: 30.19"   Gusts: NA
Location:  34.24°N, 77.94°W
Report Text: KILM 200453Z 04008KT 10SM CLR 06/01 A3019 RMK AO2 SLP224 T00560006 401560006
Loading
Personal Weather Stations






























Interactive Weather Map New forecast layout! Learn more

10-Day Weather Forecast

Advertisements
Track Severe Weather on mobile